»·PEaware :: N739SC KBFL-KMHV

N739SC :: KBFL-KMHV

FLIGHT INFORMATION

Flight Status: Arrived
Operator: Privately registered:
United States
More flights under this callsign
Pilot: Phillip T. (36944)
Aircraft: CESSNA 172 SKYHAWK
(C172)
More flights by this aircraft type
Origin: KBFL Meadows
United States
Destination: KMHV Mojave
United States
More flights between these airports :: More routes between these airports
Route: -
File this flight plan on PilotEdge
Remarks:
Altitude:
(Current/Filed)
8,500ft
Speed:
(Current/Filed)
124kts
Departed: 03-Nov-21 02:47 PM
Arrived: 03-Nov-21 03:20 PM
Distance/Time
Traveled:
120nm/0:32
Distance/Time
To Go:
Arrived

Flight Plot

Page will automatically refresh every two minutes.

Flight plan parsing failed; only flown route is shown


Map Options




Map Legend


Flown Route
Filed Route
Departure Airport
Arrival Airport
Navaid (VOR, NDB)
Fix

Horizontal Profiles

Position Reports

Time Latitude Longitude Heading Altitude Ground
Speed
03-Nov-21 14:32 35.425936 -119.042942 253 473ft 0kts
03-Nov-21 14:33 35.425936 -119.042942 253 473ft 0kts
03-Nov-21 14:34 35.425936 -119.042942 253 473ft 0kts
03-Nov-21 14:35 35.425936 -119.042942 253 473ft 0kts
03-Nov-21 14:36 35.425936 -119.042942 253 473ft 0kts
03-Nov-21 14:37 35.425936 -119.042942 253 473ft 0kts
03-Nov-21 14:38 35.425936 -119.042942 253 473ft 0kts
03-Nov-21 14:39 35.425936 -119.042942 253 473ft 0kts
03-Nov-21 14:40 35.425936 -119.042942 253 473ft 0kts
03-Nov-21 14:41 35.425936 -119.042942 253 473ft 0kts
03-Nov-21 14:42 35.425713 -119.043602 246 472ft 11kts
03-Nov-21 14:43 35.425420 -119.043965 215 471ft 0kts
03-Nov-21 14:44 35.425381 -119.044009 225 471ft 0kts
03-Nov-21 14:45 35.425296 -119.044513 281 472ft 5kts
03-Nov-21 14:46 35.435464 -119.058142 315 698ft 89kts
03-Nov-21 14:47 35.450542 -119.080709 306 1283ft 115kts
03-Nov-21 14:48 35.466350 -119.082017 60 2339ft 88kts
03-Nov-21 14:49 35.455673 -119.053395 131 3143ft 87kts
03-Nov-21 14:50 35.438363 -119.030424 129 3830ft 97kts
03-Nov-21 14:51 35.424829 -119.003265 115 4578ft 87kts
03-Nov-21 14:52 35.414367 -118.976579 115 5237ft 86kts
03-Nov-21 14:53 35.404341 -118.949789 115 5867ft 86kts
03-Nov-21 14:54 35.394603 -118.922804 115 6474ft 86kts
03-Nov-21 14:55 35.384969 -118.895497 115 7048ft 87kts
03-Nov-21 14:56 35.375187 -118.867929 115 7573ft 89kts
03-Nov-21 14:57 35.365319 -118.840039 115 8074ft 89kts
03-Nov-21 14:58 35.355331 -118.811734 115 8555ft 90kts
03-Nov-21 14:59 35.345089 -118.783148 115 9016ft 92kts
03-Nov-21 15:00 35.334698 -118.754244 115 9451ft 93kts
03-Nov-21 15:01 35.323799 -118.724292 115 9752ft 105kts
03-Nov-21 15:02 35.310465 -118.688339 115 9761ft 123kts
03-Nov-21 15:03 35.295885 -118.649113 115 9760ft 127kts
03-Nov-21 15:04 35.281339 -118.609754 115 9761ft 127kts
03-Nov-21 15:05 35.266483 -118.570066 115 9750ft 128kts
03-Nov-21 15:06 35.251487 -118.530087 115 9695ft 132kts
03-Nov-21 15:07 35.235629 -118.488116 116 9336ft 139kts
03-Nov-21 15:08 35.219488 -118.445853 115 8857ft 135kts
03-Nov-21 15:09 35.203774 -118.404345 116 8367ft 133kts
03-Nov-21 15:10 35.188055 -118.363114 116 7899ft 133kts
03-Nov-21 15:11 35.172518 -118.322812 116 7609ft 124kts
03-Nov-21 15:12 35.158213 -118.285651 116 7601ft 119kts
03-Nov-21 15:13 35.143816 -118.247944 115 7096ft 148kts
03-Nov-21 15:14 35.119736 -118.204092 132 4631ft 155kts
03-Nov-21 15:15 35.094617 -118.170835 132 3758ft 102kts
03-Nov-21 15:16 35.074122 -118.153209 139 3716ft 87kts
03-Nov-21 15:17 35.069205 -118.126128 127 3506ft 82kts
03-Nov-21 15:18 35.059235 -118.140697 267 2794ft 74kts
03-Nov-21 15:19 35.058364 -118.148782 229 2752ft 0kts
03-Nov-21 15:20 35.057091 -118.151401 273 2755ft 0kts
03-Nov-21 15:21 35.057091 -118.151401 273 2755ft 0kts
03-Nov-21 15:32 34.096433 -117.243681 0 1121ft 0kts
03-Nov-21 15:33 34.096433 -117.243681 88 1101ft 0kts

Navigation Log

Ident Type
Flight plan parsing failed, navigation log unavailable